Time;durP1;ratioP1;P1;durP2;ratioP2;P2;SDS_P1;SDS_P2;PMS_P1;PMS_P2;Temp;Humidity;BMP_temperature;BMP_pressure;BME280_temperature;BME280_humidity;BME280_pressure;Samples;Min_cycle;Max_cycle;Signal;HPM_P1;HPM_P2
2024/01/31 00:01:19;;;;;;;8.05;1.63;;;;;;;;;;4977400;28;20113;-72
2024/01/31 00:03:45;;;;;;;5.68;1.63;;;;;;;;;;4985353;28;20038;-71
2024/01/31 00:06:11;;;;;;;10.35;2.88;;;6.20;99.90;;;;;;4983669;28;20045;-71
2024/01/31 00:08:37;;;;;;;9.23;1.67;;;;;;;;;;4985128;28;20054;-71
2024/01/31 00:11:03;;;;;;;7.05;2.00;;;;;;;;;;4981167;28;20060;-71
2024/01/31 00:13:30;;;;;;;8.77;2.00;;;;;;;;;;4983596;28;20105;-72
2024/01/31 00:15:56;;;;;;;7.10;1.95;;;;;;;;;;4984445;28;20558;-71
2024/01/31 00:18:22;;;;;;;2.50;1.38;;;6.00;99.90;;;;;;4983137;28;20058;-71
2024/01/31 00:20:48;;;;;;;5.72;1.83;;;;;;;;;;4982766;28;20145;-71
2024/01/31 00:23:14;;;;;;;5.43;1.65;;;;;;;;;;4980418;28;20042;-72
2024/01/31 00:25:40;;;;;;;5.97;1.67;;;;;;;;;;4980634;28;20115;-72
2024/01/31 00:28:06;;;;;;;4.35;1.55;;;;;;;;;;4984585;28;20053;-71
2024/01/31 00:30:32;;;;;;;4.07;1.75;;;;;;;;;;4984581;28;20046;-71
2024/01/31 00:32:58;;;;;;;5.63;1.80;;;;;;;;;;4983398;28;20425;-72
2024/01/31 00:35:24;;;;;;;9.75;2.10;;;;;;;;;;4980601;28;20050;-71
2024/01/31 00:37:50;;;;;;;4.03;1.40;;;;;;;;;;4974708;28;20121;-72
2024/01/31 00:40:16;;;;;;;4.53;1.10;;;;;;;;;;4982975;28;20050;-71
2024/01/31 00:42:42;;;;;;;5.55;1.70;;;;;;;;;;4984611;28;20433;-71
2024/01/31 00:45:09;;;;;;;7.13;1.40;;;;;;;;;;4981991;28;20038;-71
2024/01/31 00:47:35;;;;;;;7.38;1.58;;;;;;;;;;4981138;28;20050;-71
2024/01/31 00:50:01;;;;;;;6.82;1.65;;;;;;;;;;4978175;28;20057;-71
2024/01/31 00:52:27;;;;;;;7.13;1.65;;;;;;;;;;4981229;28;20046;-71
2024/01/31 00:54:52;;;;;;;6.97;1.90;;;6.10;99.90;;;;;;4983480;28;21331;-71
2024/01/31 00:57:18;;;;;;;4.32;1.50;;;;;;;;;;4982719;28;20074;-71
2024/01/31 00:59:44;;;;;;;5.72;1.35;;;;;;;;;;4981081;28;20042;-71
2024/01/31 01:02:10;;;;;;;4.20;1.42;;;;;;;;;;4974087;28;20098;-71
2024/01/31 01:04:36;;;;;;;6.82;1.40;;;;;;;;;;4979711;28;20050;-71
2024/01/31 01:07:02;;;;;;;8.13;1.60;;;;;;;;;;4991817;28;20536;-71
2024/01/31 01:09:28;;;;;;;6.55;1.80;;;6.00;99.90;;;;;;4979550;28;20374;-71
2024/01/31 01:11:54;;;;;;;8.13;1.75;;;;;;;;;;4981668;28;20125;-71
2024/01/31 01:14:20;;;;;;;5.30;1.23;;;;;;;;;;4979249;28;20065;-71
2024/01/31 01:16:46;;;;;;;4.15;1.02;;;;;;;;;;4982700;28;20846;-71
2024/01/31 01:19:12;;;;;;;6.78;1.38;;;;;;;;;;4978958;28;20055;-71
2024/01/31 01:21:38;;;;;;;3.53;1.42;;;;;;;;;;4981163;28;20121;-71
2024/01/31 01:24:04;;;;;;;3.95;2.10;;;;;;;;;;4974209;28;20134;-71
2024/01/31 01:26:30;;;;;;;8.60;1.30;;;;;;;;;;4979038;28;20089;-71
2024/01/31 01:28:56;;;;;;;6.95;1.83;;;;;;;;;;4979323;28;20049;-71
2024/01/31 01:31:22;;;;;;;5.22;1.35;;;;;;;;;;4969703;28;20046;-71
2024/01/31 01:33:48;;;;;;;4.53;1.30;;;;;;;;;;4968450;28;20504;-71
2024/01/31 01:36:15;;;;;;;2.88;1.20;;;;;;;;;;4976053;28;20054;-71
2024/01/31 01:38:41;;;;;;;5.90;1.30;;;;;;;;;;4974319;28;20634;-71
2024/01/31 01:41:07;;;;;;;3.53;1.25;;;;;;;;;;4977802;28;20050;-71
2024/01/31 01:43:33;;;;;;;7.07;1.40;;;;;;;;;;4979723;28;20055;-71
2024/01/31 01:46:20;;;;;;;6.38;1.77;;;;;;;;;;4977035;28;20595;-71
2024/01/31 01:48:46;;;;;;;5.25;1.40;;;;;;;;;;4954797;28;20075;-71
2024/01/31 01:51:17;;;;;;;3.42;1.20;;;;;;;;;;4981580;28;20054;-71
2024/01/31 01:53:43;;;;;;;5.65;1.40;;;;;;;;;;4977678;28;20081;-71
2024/01/31 01:56:09;;;;;;;6.93;1.70;;;;;;;;;;4973789;28;20095;-71
2024/01/31 01:58:36;;;;;;;5.43;1.45;;;;;;;;;;4975688;28;20050;-71
2024/01/31 02:01:03;;;;;;;4.95;1.50;;;;;;;;;;4975574;28;20046;-71
2024/01/31 02:03:32;;;;;;;4.82;1.60;;;;;;;;;;4980269;28;20769;-71
2024/01/31 02:05:58;;;;;;;3.92;1.48;;;;;;;;;;4979256;28;20042;-71
2024/01/31 02:08:26;;;;;;;8.05;1.55;;;;;;;;;;4979276;28;20042;-71
2024/01/31 02:10:51;;;;;;;5.07;1.17;;;5.90;99.90;;;;;;4974825;28;20121;-71
2024/01/31 02:13:17;;;;;;;8.40;1.23;;;;;;;;;;4976982;28;20824;-71
2024/01/31 02:15:53;;;;;;;6.88;1.67;;;;;;;;;;4975106;28;20042;-71
2024/01/31 02:18:19;;;;;;;5.10;1.90;;;;;;;;;;4975048;28;20592;-71
2024/01/31 02:20:45;;;;;;;2.83;1.17;;;;;;;;;;4972463;28;20087;-71
2024/01/31 02:23:11;;;;;;;4.13;1.10;;;;;;;;;;4976738;28;20437;-71
2024/01/31 02:25:37;;;;;;;4.70;1.95;;;;;;;;;;4977000;28;20038;-71
2024/01/31 02:28:03;;;;;;;6.80;1.63;;;;;;;;;;4975601;28;20047;-71
2024/01/31 02:30:29;;;;;;;7.85;1.50;;;;;;;;;;4976786;28;20077;-71
2024/01/31 02:32:56;;;;;;;2.92;1.48;;;;;;;;;;4974425;28;20121;-71
2024/01/31 02:35:24;;;;;;;5.57;1.70;;;5.80;99.90;;;;;;4976248;28;20081;-71
2024/01/31 02:37:50;;;;;;;4.78;1.75;;;;;;;;;;4974213;28;20054;-71
2024/01/31 02:40:16;;;;;;;12.25;2.90;;;;;;;;;;4978614;28;20101;-71
2024/01/31 02:42:43;;;;;;;6.95;1.70;;;;;;;;;;4973658;28;20555;-71
2024/01/31 02:45:09;;;;;;;5.70;1.73;;;;;;;;;;4973759;28;20822;-71
2024/01/31 02:47:35;;;;;;;5.32;1.75;;;;;;;;;;4977419;28;20050;-71
2024/01/31 02:50:01;;;;;;;8.27;1.83;;;;;;;;;;4976660;28;20058;-71
2024/01/31 02:52:27;;;;;;;4.22;1.48;;;;;;;;;;4977153;28;20050;-71
2024/01/31 02:54:54;;;;;;;5.75;1.25;;;;;;;;;;4977424;28;20472;-71
2024/01/31 02:57:20;;;;;;;11.65;1.77;;;;;;;;;;4977957;28;20056;-71
2024/01/31 02:59:45;;;;;;;10.02;1.67;;;5.90;99.90;;;;;;4973886;28;20046;-71
2024/01/31 03:02:11;;;;;;;7.40;1.60;;;;;;;;;;4970989;28;20050;-71
2024/01/31 03:04:38;;;;;;;4.20;1.60;;;;;;;;;;4976435;28;20038;-71
2024/01/31 03:07:04;;;;;;;8.55;1.42;;;;;;;;;;4977982;28;20045;-71
2024/01/31 03:09:30;;;;;;;4.45;1.52;;;;;;;;;;4976500;28;20141;-71
2024/01/31 03:11:56;;;;;;;3.13;1.20;;;;;;;;;;4976114;28;20053;-71
2024/01/31 03:14:22;;;;;;;3.47;1.17;;;;;;;;;;4978321;28;20053;-71
2024/01/31 03:16:48;;;;;;;7.22;1.55;;;;;;;;;;4976258;28;20089;-71
2024/01/31 03:19:15;;;;;;;4.65;1.20;;;;;;;;;;4975663;28;20850;-71
2024/01/31 03:21:41;;;;;;;1.33;0.82;;;;;;;;;;4975132;28;20133;-71
2024/01/31 03:24:07;;;;;;;2.08;0.95;;;5.90;99.90;;;;;;4974203;28;20100;-71
2024/01/31 03:26:33;;;;;;;4.18;1.20;;;;;;;;;;4977597;28;20073;-71
2024/01/31 03:29:01;;;;;;;3.80;1.40;;;;;;;;;;4976180;28;20073;-71
2024/01/31 03:31:27;;;;;;;4.28;1.27;;;;;;;;;;4977497;28;20057;-71
2024/01/31 03:33:53;;;;;;;4.88;1.20;;;;;;;;;;4974194;28;20603;-71
2024/01/31 03:36:19;;;;;;;3.08;1.30;;;;;;;;;;4973970;28;20046;-71
2024/01/31 03:38:45;;;;;;;3.67;1.70;;;;;;;;;;4974930;28;20125;-71
2024/01/31 03:41:11;;;;;;;3.75;1.75;;;;;;;;;;4972493;28;20145;-71
2024/01/31 03:43:37;;;;;;;5.43;1.30;;;;;;;;;;4978093;28;20058;-71
2024/01/31 03:46:06;;;;;;;1.45;1.33;;;;;;;;;;4977333;28;20837;-71
2024/01/31 03:48:32;;;;;;;3.95;1.15;;;;;;;;;;4975937;28;20496;-71
2024/01/31 03:50:59;;;;;;;4.75;1.75;;;;;;;;;;4977227;28;20054;-71
2024/01/31 03:53:25;;;;;;;5.65;1.30;;;;;;;;;;4977571;28;20047;-71
2024/01/31 03:55:51;;;;;;;3.88;1.20;;;;;;;;;;4973654;28;20046;-71
2024/01/31 03:58:18;;;;;;;3.00;1.20;;;;;;;;;;4971596;28;20046;-71
2024/01/31 04:00:44;;;;;;;1.77;1.02;;;;;;;;;;4979646;28;20046;-71
2024/01/31 04:03:10;;;;;;;3.15;1.50;;;;;;;;;;4977052;28;20153;-71
2024/01/31 04:05:36;;;;;;;4.55;1.33;;;;;;;;;;4974576;28;20070;-71
2024/01/31 04:08:02;;;;;;;3.33;1.10;;;;;;;;;;4976759;28;20913;-71
2024/01/31 04:10:28;;;;;;;3.40;1.25;;;;;;;;;;4975634;28;20046;-71
2024/01/31 04:12:54;;;;;;;5.40;1.00;;;;;;;;;;4978244;28;20061;-71
2024/01/31 04:15:20;;;;;;;4.75;1.33;;;;;;;;;;4976735;28;20404;-71
2024/01/31 04:17:46;;;;;;;1.17;0.80;;;;;;;;;;4976736;28;20137;-71
2024/01/31 04:20:12;;;;;;;5.68;1.40;;;;;;;;;;4968791;28;20052;-71
2024/01/31 04:22:39;;;;;;;4.57;1.15;;;;;;;;;;4963292;28;20047;-71
2024/01/31 04:25:05;;;;;;;2.92;1.20;;;;;;;;;;4976846;28;20046;-71
2024/01/31 04:27:31;;;;;;;2.67;1.00;;;;;;;;;;4977787;28;20077;-71
2024/01/31 04:29:57;;;;;;;4.70;1.30;;;;;;;;;;4979260;28;20969;-71
2024/01/31 04:32:24;;;;;;;5.63;1.30;;;;;;;;;;4980710;28;20046;-71
2024/01/31 04:34:50;;;;;;;2.83;1.20;;;;;;;;;;4978541;28;20050;-71
2024/01/31 04:37:16;;;;;;;4.70;1.25;;;;;;;;;;4980207;28;20050;-71
2024/01/31 04:39:43;;;;;;;5.13;1.25;;;;;;;;;;4978600;28;20516;-71
2024/01/31 04:42:09;;;;;;;4.82;1.20;;;;;;;;;;4981483;28;20089;-71
2024/01/31 04:44:36;;;;;;;5.28;1.83;;;;;;;;;;4975932;28;20074;-71
2024/01/31 04:47:02;;;;;;;6.13;1.45;;;;;;;;;;4980938;28;20034;-71
2024/01/31 04:49:29;;;;;;;6.05;1.42;;;;;;;;;;4976894;28;20423;-71
2024/01/31 04:51:55;;;;;;;3.85;1.27;;;;;;;;;;4980390;28;20857;-71
2024/01/31 04:54:21;;;;;;;3.25;1.00;;;;;;;;;;4977606;28;20698;-71
2024/01/31 04:56:47;;;;;;;4.90;1.55;;;;;;;;;;4979350;28;20050;-71
2024/01/31 04:59:13;;;;;;;5.57;1.50;;;;;;;;;;4979625;28;20050;-71
2024/01/31 05:01:39;;;;;;;3.65;1.20;;;;;;;;;;4978572;28;20048;-71
2024/01/31 05:04:05;;;;;;;4.22;1.50;;;;;;;;;;4979488;28;20042;-71
2024/01/31 05:06:31;;;;;;;6.20;1.95;;;;;;;;;;4969511;28;20042;-71
2024/01/31 05:08:57;;;;;;;5.95;1.15;;;;;;;;;;4994626;28;20599;-71
2024/01/31 05:11:23;;;;;;;4.38;1.30;;;;;;;;;;4981294;28;20074;-71
2024/01/31 05:13:49;;;;;;;3.90;1.40;;;;;;;;;;4978454;28;20038;-70
2024/01/31 05:16:15;;;;;;;3.35;1.20;;;;;;;;;;4973445;28;20499;-71
2024/01/31 05:18:41;;;;;;;6.20;1.30;;;;;;;;;;4981497;28;20050;-71
2024/01/31 05:21:10;;;;;;;9.32;1.60;;;;;;;;;;4980145;28;20038;-71
2024/01/31 05:23:36;;;;;;;9.25;1.20;;;;;;;;;;4979574;28;20050;-71
2024/01/31 05:26:07;;;;;;;6.30;1.30;;;;;;;;;;4979579;28;20823;-71
2024/01/31 05:28:33;;;;;;;6.32;1.67;;;;;;;;;;4980090;28;20428;-71
2024/01/31 05:30:59;;;;;;;3.47;1.58;;;;;;;;;;4980289;28;20050;-71
2024/01/31 05:33:25;;;;;;;6.78;1.20;;;;;;;;;;4981581;28;20042;-71
2024/01/31 05:35:51;;;;;;;2.20;0.90;;;;;;;;;;4979356;28;20050;-71
2024/01/31 05:38:17;;;;;;;7.15;1.88;;;;;;;;;;4980957;28;20053;-71
2024/01/31 05:40:44;;;;;;;5.57;1.75;;;;;;;;;;4978079;28;20046;-71
2024/01/31 05:43:10;;;;;;;4.65;1.30;;;5.00;99.90;;;;;;4978371;28;20063;-71
2024/01/31 05:45:37;;;;;;;5.78;1.40;;;;;;;;;;4976809;28;20042;-71
2024/01/31 05:48:04;;;;;;;4.80;1.45;;;;;;;;;;4979384;28;20113;-71
2024/01/31 05:50:30;;;;;;;4.57;1.20;;;;;;;;;;4980090;28;20846;-71
2024/01/31 05:52:56;;;;;;;4.15;1.30;;;;;;;;;;4978748;28;20047;-71
2024/01/31 05:55:22;;;;;;;5.90;1.20;;;;;;;;;;4978838;28;20049;-71
2024/01/31 05:57:48;;;;;;;7.22;1.70;;;;;;;;;;4978416;28;20050;-71
2024/01/31 06:00:15;;;;;;;9.73;2.03;;;;;;;;;;4979568;28;20050;-71
2024/01/31 06:02:41;;;;;;;6.22;1.48;;;;;;;;;;4978437;28;20049;-71
2024/01/31 06:05:07;;;;;;;9.93;1.85;;;;;;;;;;4976398;28;20042;-71
2024/01/31 06:07:33;;;;;;;5.15;1.48;;;;;;;;;;4979740;28;20082;-71
2024/01/31 06:09:59;;;;;;;8.57;2.10;;;;;;;;;;4980663;28;20049;-71
2024/01/31 06:12:26;;;;;;;5.32;1.27;;;;;;;;;;4977299;28;20050;-71
2024/01/31 06:14:52;;;;;;;3.25;1.48;;;;;;;;;;4973278;28;20046;-71
2024/01/31 06:17:18;;;;;;;10.00;1.92;;;;;;;;;;4977701;28;20058;-71
2024/01/31 06:19:44;;;;;;;4.85;2.15;;;;;;;;;;4978582;28;20080;-71
2024/01/31 06:22:10;;;;;;;3.85;1.30;;;;;;;;;;4978150;28;20361;-71
2024/01/31 06:24:36;;;;;;;3.83;2.10;;;;;;;;;;4975795;28;20046;-71
2024/01/31 06:27:02;;;;;;;5.28;2.10;;;;;;;;;;4978310;28;20049;-71
2024/01/31 06:29:28;;;;;;;4.05;1.73;;;;;;;;;;4976073;28;20057;-71
2024/01/31 06:31:59;;;;;;;2.90;1.60;;;;;;;;;;4972103;28;20223;-71
2024/01/31 06:34:25;;;;;;;6.75;1.60;;;;;;;;;;4978124;28;20136;-71
2024/01/31 06:36:52;;;;;;;9.25;3.15;;;;;;;;;;4977587;28;20053;-71
2024/01/31 06:39:18;;;;;;;3.00;1.80;;;;;;;;;;4979151;28;20257;-71
2024/01/31 06:41:44;;;;;;;4.05;1.65;;;;;;;;;;4977092;28;20054;-71
2024/01/31 06:44:11;;;;;;;5.45;2.15;;;;;;;;;;4976748;28;20137;-71
2024/01/31 06:46:37;;;;;;;4.45;1.40;;;;;;;;;;4977086;28;20046;-71
2024/01/31 06:49:03;;;;;;;5.70;1.90;;;;;;;;;;4977918;28;20085;-71
2024/01/31 06:51:29;;;;;;;6.50;1.77;;;;;;;;;;4991916;28;20153;-71
2024/01/31 06:53:55;;;;;;;5.00;1.85;;;;;;;;;;4973485;28;20501;-71
2024/01/31 06:56:21;;;;;;;5.50;1.98;;;;;;;;;;4969687;28;20130;-71
2024/01/31 06:58:48;;;;;;;5.05;1.73;;;;;;;;;;4975147;28;20504;-71
2024/01/31 07:01:15;;;;;;;6.38;1.70;;;;;;;;;;4976887;28;20050;-71
2024/01/31 07:03:41;;;;;;;10.65;2.15;;;;;;;;;;4976105;28;20055;-71
2024/01/31 07:06:07;;;;;;;6.57;1.55;;;;;;;;;;4976982;28;20523;-71
2024/01/31 07:08:33;;;;;;;6.93;2.10;;;;;;;;;;4976931;28;20548;-71
2024/01/31 07:10:59;;;;;;;7.03;1.70;;;;;;;;;;4977317;28;20045;-71
2024/01/31 07:13:25;;;;;;;5.35;1.63;;;;;;;;;;4970500;28;20126;-71
2024/01/31 07:15:51;;;;;;;7.35;1.88;;;;;;;;;;4971020;28;20057;-71
2024/01/31 07:18:17;;;;;;;7.22;3.53;;;;;;;;;;4978800;28;20046;-71
2024/01/31 07:20:43;;;;;;;6.10;2.33;;;;;;;;;;4980553;28;20121;-71
2024/01/31 07:23:09;;;;;;;6.38;2.15;;;;;;;;;;4976041;28;20042;-71
2024/01/31 07:25:38;;;;;;;4.07;1.90;;;;;;;;;;4977096;28;20902;-71
2024/01/31 07:28:05;;;;;;;6.15;2.33;;;;;;;;;;4975447;28;20050;-71
2024/01/31 07:30:31;;;;;;;6.18;2.78;;;;;;;;;;4977746;28;20061;-71
2024/01/31 07:32:57;;;;;;;10.63;2.38;;;;;;;;;;4973604;28;20050;-71
2024/01/31 07:35:24;;;;;;;5.75;2.80;;;;;;;;;;4972358;28;20478;-70
2024/01/31 07:37:50;;;;;;;6.15;2.00;;;;;;;;;;4974380;28;20539;-70
2024/01/31 07:40:16;;;;;;;10.07;2.63;;;;;;;;;;4972890;28;20043;-70
2024/01/31 07:42:43;;;;;;;5.97;2.40;;;;;;;;;;4967033;28;20116;-68
2024/01/31 07:45:09;;;;;;;4.90;2.70;;;;;;;;;;4971519;28;20106;-68
2024/01/31 07:47:37;;;;;;;9.77;2.70;;;;;;;;;;4970944;28;20104;-68
2024/01/31 07:50:04;;;;;;;6.20;2.80;;;;;;;;;;4975656;28;20480;-69
2024/01/31 07:52:30;;;;;;;6.05;2.45;;;;;;;;;;4976633;28;20806;-70
2024/01/31 07:54:56;;;;;;;12.48;2.70;;;;;;;;;;4974304;28;20054;-68
2024/01/31 07:57:22;;;;;;;4.95;2.53;;;;;;;;;;4976379;28;20049;-68
2024/01/31 07:59:48;;;;;;;4.82;2.78;;;;;;;;;;4977117;28;20043;-68
2024/01/31 08:02:14;;;;;;;5.03;2.75;;;;;;;;;;4973783;28;20097;-68
2024/01/31 08:04:41;;;;;;;6.40;3.78;;;;;;;;;;4971037;28;20053;-67
2024/01/31 08:07:07;;;;;;;9.75;4.18;;;;;;;;;;4974012;28;20149;-68
2024/01/31 08:09:33;;;;;;;9.50;3.78;;;;;;;;;;4981781;28;20112;-68
2024/01/31 08:12:00;;;;;;;6.60;4.13;;;;;;;;;;4982038;28;20049;-68
2024/01/31 08:14:26;;;;;;;8.60;4.93;;;;;;;;;;4977757;28;20050;-67
2024/01/31 08:16:52;;;;;;;6.65;4.43;;;;;;;;;;4981812;28;20053;-68
2024/01/31 08:19:18;;;;;;;8.13;4.28;;;;;;;;;;4980178;28;20046;-68
2024/01/31 08:21:47;;;;;;;6.53;3.80;;;;;;;;;;4977753;28;20042;-67
2024/01/31 08:24:13;;;;;;;7.72;3.83;;;;;;;;;;4972883;28;20065;-67
2024/01/31 08:26:39;;;;;;;7.22;4.28;;;;;;;;;;4979334;28;20042;-67
2024/01/31 08:29:06;;;;;;;9.68;4.32;;;;;;;;;;4973330;28;20078;-68
2024/01/31 08:31:32;;;;;;;6.90;3.33;;;;;;;;;;4979203;28;20097;-68
2024/01/31 08:33:58;;;;;;;6.05;4.00;;;;;;;;;;4971396;28;20058;-68
2024/01/31 08:36:24;;;;;;;7.90;4.00;;;;;;;;;;4979216;28;20076;-69
2024/01/31 08:38:50;;;;;;;6.07;3.35;;;;;;;;;;4977541;28;20042;-71
2024/01/31 08:41:18;;;;;;;5.70;3.95;;;;;;;;;;4978916;28;20490;-70
2024/01/31 08:43:44;;;;;;;9.00;3.38;;;;;;;;;;4976092;28;20161;-68
2024/01/31 08:46:11;;;;;;;6.90;3.60;;;;;;;;;;4980379;28;21018;-68
2024/01/31 08:48:38;;;;;;;7.00;3.70;;;;;;;;;;4978114;28;20130;-68
2024/01/31 08:51:05;;;;;;;6.95;3.90;;;;;;;;;;4990857;28;20051;-68
2024/01/31 08:53:31;;;;;;;8.88;4.43;;;;;;;;;;4989756;28;20080;-68
2024/01/31 08:55:57;;;;;;;6.38;4.40;;;;;;;;;;4973477;28;20057;-68
2024/01/31 08:58:24;;;;;;;5.63;3.72;;;;;;;;;;4977135;28;20061;-68
2024/01/31 09:00:50;;;;;;;5.85;4.22;;;;;;;;;;4976748;28;20039;-68
2024/01/31 09:03:17;;;;;;;9.70;4.50;;;;;;;;;;4976925;28;20074;-68
2024/01/31 09:05:43;;;;;;;6.43;4.40;;;;;;;;;;4978813;28;20515;-68
2024/01/31 09:08:09;;;;;;;5.95;4.18;;;;;;;;;;4977358;28;20050;-67
2024/01/31 09:10:35;;;;;;;8.52;4.80;;;;;;;;;;4974867;28;20042;-68
2024/01/31 09:13:01;;;;;;;6.47;5.03;;;;;;;;;;4969024;28;20104;-68
2024/01/31 09:15:27;;;;;;;8.57;4.95;;;;;;;;;;4975923;28;20046;-68
2024/01/31 09:17:53;;;;;;;8.95;5.05;;;;;;;;;;4979772;28;20576;-68
2024/01/31 09:20:20;;;;;;;6.47;4.70;;;;;;;;;;4970710;28;20118;-68
2024/01/31 09:22:46;;;;;;;8.20;5.13;;;;;;;;;;4978976;28;20771;-70
2024/01/31 09:25:14;;;;;;;9.90;5.63;;;;;;;;;;4979579;28;20041;-70
2024/01/31 09:27:41;;;;;;;7.00;4.68;;;;;;;;;;4980747;28;20136;-68
2024/01/31 09:30:07;;;;;;;7.28;5.47;;;;;;;;;;4977834;28;20144;-67
2024/01/31 09:32:33;;;;;;;9.00;6.00;;;;;;;;;;4979228;28;20046;-67
2024/01/31 09:34:59;;;;;;;8.68;5.40;;;;;;;;;;4974443;28;20082;-71
2024/01/31 09:37:25;;;;;;;7.80;5.53;;;;;;;;;;4980080;28;20057;-70
2024/01/31 09:39:54;;;;;;;7.65;5.57;;;;;;;;;;4977200;28;20042;-71
2024/01/31 09:42:20;;;;;;;6.57;5.35;;;;;;;;;;4978502;28;20108;-70
2024/01/31 09:44:46;;;;;;;9.57;5.18;;;;;;;;;;4979523;28;20046;-70
2024/01/31 09:47:13;;;;;;;11.80;8.23;;;;;;;;;;4978393;28;20038;-67
2024/01/31 09:49:39;;;;;;;8.10;5.68;;;;;;;;;;4981027;28;20050;-70
2024/01/31 09:52:05;;;;;;;6.72;5.13;;;;;;;;;;4967904;28;20712;-71
2024/01/31 09:54:31;;;;;;;7.65;5.88;;;;;;;;;;4979598;28;20054;-71
2024/01/31 09:56:58;;;;;;;8.07;5.95;;;;;;;;;;4978013;28;20058;-69
2024/01/31 09:59:27;;;;;;;8.25;5.47;;;;;;;;;;4978277;28;20058;-70
2024/01/31 10:01:54;;;;;;;8.80;5.15;;;;;;;;;;4979336;28;20042;-70
2024/01/31 10:04:20;;;;;;;6.30;4.90;;;;;;;;;;4978184;28;20840;-71
2024/01/31 10:06:46;;;;;;;6.82;4.65;;;;;;;;;;4974930;28;20061;-72
2024/01/31 10:09:13;;;;;;;6.38;5.20;;;;;;;;;;4976765;28;20054;-72
2024/01/31 10:11:45;;;;;;;7.07;5.07;;;;;;;;;;4975607;28;20105;-74
2024/01/31 10:14:12;;;;;;;6.22;4.95;;;;;;;;;;4972659;28;20165;-72
2024/01/31 10:16:38;;;;;;;9.68;5.38;;;;;;;;;;4983364;28;20046;-75
2024/01/31 10:19:05;;;;;;;6.88;4.80;;;;;;;;;;4972743;28;20038;-69
2024/01/31 10:21:32;;;;;;;7.80;5.38;;;;;;;;;;4974550;28;20070;-72
2024/01/31 10:23:59;;;;;;;7.22;5.28;;;6.60;99.90;;;;;;4977272;28;20042;-66
2024/01/31 10:26:26;;;;;;;6.10;4.85;;;;;;;;;;4972377;28;20051;-71
2024/01/31 10:28:52;;;;;;;7.57;5.38;;;;;;;;;;4962940;28;20053;-72
2024/01/31 10:31:19;;;;;;;7.68;5.38;;;;;;;;;;4975510;28;20125;-75
2024/01/31 10:33:45;;;;;;;7.40;5.43;;;;;;;;;;4974618;28;20049;-70
2024/01/31 10:36:11;;;;;;;8.40;5.05;;;;;;;;;;4973555;28;20050;-70
2024/01/31 10:38:39;;;;;;;6.35;4.53;;;;;;;;;;4977195;28;20042;-70
2024/01/31 10:41:09;;;;;;;6.43;5.35;;;;;;;;;;4983111;28;20089;-69
2024/01/31 10:43:36;;;;;;;7.22;4.72;;;;;;;;;;4974159;28;20101;-69
2024/01/31 10:46:02;;;;;;;10.05;5.65;;;;;;;;;;4971084;28;20050;-70
2024/01/31 10:48:28;;;;;;;6.72;4.82;;;;;;;;;;4974454;28;20092;-72
2024/01/31 10:50:56;;;;;;;7.20;4.85;;;;;;;;;;4972259;28;20153;-73
2024/01/31 10:53:24;;;;;;;8.25;4.90;;;;;;;;;;4965293;28;20128;-75
2024/01/31 10:56:00;;;;;;;6.53;4.85;;;;;;;;;;4973914;28;20550;-73
2024/01/31 10:58:36;;;;;;;7.80;5.30;;;;;;;;;;4970037;28;20055;-74
2024/01/31 11:01:03;;;;;;;8.45;5.28;;;;;;;;;;4975161;28;20046;-71
2024/01/31 11:03:29;;;;;;;9.38;5.93;;;;;;;;;;4975696;28;20074;-71
2024/01/31 11:05:55;;;;;;;7.88;5.88;;;;;;;;;;4972029;28;20205;-70
2024/01/31 11:08:22;;;;;;;8.32;5.85;;;;;;;;;;4975752;28;20539;-71
2024/01/31 11:10:49;;;;;;;7.97;5.57;;;;;;;;;;4975443;28;20081;-70
2024/01/31 11:13:16;;;;;;;7.70;5.65;;;;;;;;;;4969483;28;20097;-70
2024/01/31 11:15:42;;;;;;;9.70;5.93;;;;;;;;;;4974581;28;20042;-70
2024/01/31 11:18:09;;;;;;;7.85;5.85;;;;;;;;;;4975224;28;20121;-70
2024/01/31 11:20:56;;;;;;;7.50;5.82;;;;;;;;;;4975603;28;20116;-70
2024/01/31 11:23:23;;;;;;;7.90;5.45;;;;;;;;;;4973871;28;20138;-70
2024/01/31 11:25:50;;;;;;;8.15;5.97;;;;;;;;;;4975618;28;20390;-70
2024/01/31 11:28:16;;;;;;;10.63;6.38;;;;;;;;;;4975301;28;20104;-70
2024/01/31 11:30:43;;;;;;;10.05;6.25;;;;;;;;;;4976514;28;20120;-71
2024/01/31 11:33:09;;;;;;;10.20;6.90;;;;;;;;;;4972325;28;20125;-70
2024/01/31 11:35:35;;;;;;;7.97;6.53;;;;;;;;;;4975198;28;20125;-70
2024/01/31 11:38:02;;;;;;;8.88;6.53;;;;;;;;;;4976988;28;20315;-71
2024/01/31 11:40:28;;;;;;;10.75;7.18;;;;;;;;;;4978420;28;20044;-70
2024/01/31 11:42:56;;;;;;;8.32;6.50;;;;;;;;;;4969616;28;20058;-70
2024/01/31 11:45:23;;;;;;;10.18;6.82;;;;;;;;;;4972956;28;20149;-71
2024/01/31 11:47:50;;;;;;;9.18;6.97;;;;;;;;;;4972084;28;20743;-69
2024/01/31 11:50:16;;;;;;;9.95;7.82;;;;;;;;;;4984554;28;20786;-69
2024/01/31 11:52:42;;;;;;;11.55;7.65;;;;;;;;;;4966809;28;20047;-70
2024/01/31 11:55:11;;;;;;;8.88;7.43;;;;;;;;;;4975303;28;20046;-69
2024/01/31 11:57:37;;;;;;;11.30;7.63;;;;;;;;;;4979921;28;20053;-69
2024/01/31 12:00:07;;;;;;;12.52;6.88;;;;;;;;;;4978078;28;20078;-69
2024/01/31 12:02:33;;;;;;;11.05;7.93;;;;;;;;;;4978463;28;20056;-69
2024/01/31 12:04:59;;;;;;;11.15;8.38;;;;;;;;;;4977662;28;20157;-68
2024/01/31 12:07:25;;;;;;;10.15;7.55;;;;;;;;;;4977401;28;20446;-68
2024/01/31 12:09:51;;;;;;;10.75;7.55;;;;;;;;;;4978937;28;20141;-68
2024/01/31 12:12:17;;;;;;;17.92;8.88;;;7.00;99.90;;;;;;4977008;28;20117;-69
2024/01/31 12:14:43;;;;;;;11.80;8.23;;;;;;;;;;4976088;28;20586;-69
2024/01/31 12:17:19;;;;;;;12.65;9.13;;;;;;;;;;4976576;28;20092;-69
2024/01/31 12:19:45;;;;;;;11.77;8.15;;;;;;;;;;4976507;28;20046;-69
2024/01/31 12:22:11;;;;;;;12.02;8.10;;;;;;;;;;4977896;28;20050;-68
2024/01/31 12:24:41;;;;;;;13.10;9.70;;;;;;;;;;4978020;28;20078;-69
2024/01/31 12:27:07;;;;;;;12.05;9.27;;;;;;;;;;4977546;28;20080;-68
2024/01/31 12:29:33;;;;;;;12.70;9.73;;;;;;;;;;4978515;28;20054;-68
2024/01/31 12:31:59;;;;;;;12.15;9.13;;;;;;;;;;4977848;28;20050;-70
2024/01/31 12:34:25;;;;;;;12.77;8.70;;;;;;;;;;4978456;28;20050;-69
2024/01/31 12:36:51;;;;;;;16.77;9.60;;;;;;;;;;4961546;28;20058;-69
2024/01/31 12:39:19;;;;;;;15.75;8.55;;;;;;;;;;4975736;28;20819;-69
2024/01/31 12:41:45;;;;;;;11.88;9.02;;;;;;;;;;4976102;28;20057;-69
2024/01/31 12:44:12;;;;;;;12.02;7.72;;;;;;;;;;4978463;28;20057;-69
2024/01/31 12:46:40;;;;;;;11.23;7.68;;;;;;;;;;4979075;28;20041;-69
2024/01/31 12:49:06;;;;;;;13.45;7.65;;;;;;;;;;4971943;28;20137;-69
2024/01/31 12:51:32;;;;;;;10.52;7.93;;;;;;;;;;4993080;28;20057;-69
2024/01/31 12:53:58;;;;;;;12.55;7.68;;;;;;;;;;4989226;28;20419;-69
2024/01/31 12:56:24;;;;;;;13.38;8.80;;;;;;;;;;4973475;28;20046;-68
2024/01/31 12:58:50;;;;;;;11.25;8.18;;;;;;;;;;4975184;28;20042;-69
2024/01/31 13:01:19;;;;;;;10.60;8.10;;;;;;;;;;4974386;28;20045;-70
2024/01/31 13:03:45;;;;;;;10.15;8.23;;;;;;;;;;4974550;28;20053;-69
2024/01/31 13:06:11;;;;;;;11.95;7.78;;;;;;;;;;4975803;28;20050;-69
2024/01/31 13:08:37;;;;;;;10.93;8.13;;;;;;;;;;4976563;28;20479;-70
2024/01/31 13:11:03;;;;;;;10.00;8.05;;;;;;;;;;4973568;28;20053;-70
2024/01/31 13:13:29;;;;;;;11.63;7.90;;;;;;;;;;4976442;28;20045;-69
2024/01/31 13:15:55;;;;;;;11.88;8.25;;;;;;;;;;4973741;28;20054;-69
2024/01/31 13:18:21;;;;;;;11.65;8.00;;;;;;;;;;4975993;28;20046;-69
2024/01/31 13:20:47;;;;;;;12.95;8.82;;;;;;;;;;4978349;28;20104;-69
2024/01/31 13:23:15;;;;;;;11.32;7.95;;;;;;;;;;4976381;28;20575;-68
2024/01/31 13:25:41;;;;;;;11.98;9.27;;;;;;;;;;4974163;28;20795;-68
2024/01/31 13:28:07;;;;;;;13.55;8.45;;;;;;;;;;4969964;28;20061;-68
2024/01/31 13:30:33;;;;;;;13.30;8.55;;;;;;;;;;4976786;28;20046;-68
2024/01/31 13:32:59;;;;;;;11.98;8.00;;;;;;;;;;4974262;28;20122;-69
2024/01/31 13:35:25;;;;;;;14.77;7.68;;;;;;;;;;4976020;28;20046;-69
2024/01/31 13:37:51;;;;;;;11.77;8.73;;;;;;;;;;4975556;28;20046;-69
2024/01/31 13:40:17;;;;;;;11.45;7.95;;;;;;;;;;4977066;28;20049;-69
2024/01/31 13:42:47;;;;;;;11.60;8.60;;;;;;;;;;4975806;28;20065;-71
2024/01/31 13:45:13;;;;;;;14.18;8.98;;;;;;;;;;4975802;28;20701;-70
2024/01/31 13:47:39;;;;;;;9.98;8.05;;;;;;;;;;4975266;28;20034;-70
2024/01/31 13:50:06;;;;;;;13.35;8.27;;;;;;;;;;4972213;28;20077;-69
2024/01/31 13:52:32;;;;;;;9.73;7.80;;;;;;;;;;4974982;28;20866;-70
2024/01/31 13:54:58;;;;;;;12.30;8.63;;;;;;;;;;4973749;28;20048;-71
2024/01/31 13:57:24;;;;;;;11.35;8.30;;;;;;;;;;4973174;28;20046;-70
2024/01/31 13:59:50;;;;;;;11.45;8.10;;;;;;;;;;4973946;28;20412;-70
2024/01/31 14:02:16;;;;;;;11.88;8.27;;;;;;;;;;4973655;28;20141;-70
2024/01/31 14:04:42;;;;;;;11.90;8.50;;;;;;;;;;4976871;28;20060;-70
2024/01/31 14:07:08;;;;;;;14.43;8.70;;;;;;;;;;4974619;28;20493;-70
2024/01/31 14:09:34;;;;;;;12.63;9.32;;;;;;;;;;4972870;28;20057;-70
2024/01/31 14:12:01;;;;;;;13.18;9.48;;;;;;;;;;4972462;28;20050;-70
2024/01/31 14:14:27;;;;;;;13.07;9.80;;;;;;;;;;4974160;28;20042;-70
2024/01/31 14:16:53;;;;;;;13.90;8.95;;;;;;;;;;4971782;28;20046;-70
2024/01/31 14:19:19;;;;;;;15.13;9.98;;;;;;;;;;4976494;28;20147;-69
2024/01/31 14:21:45;;;;;;;16.15;9.95;;;;;;;;;;4976538;28;20069;-69
2024/01/31 14:24:11;;;;;;;17.48;10.55;;;;;;;;;;4977507;28;20434;-69
2024/01/31 14:26:37;;;;;;;14.25;10.10;;;;;;;;;;4975932;28;20065;-68
2024/01/31 14:29:03;;;;;;;14.27;10.45;;;;;;;;;;4975732;28;20061;-69
2024/01/31 14:31:29;;;;;;;17.33;11.30;;;;;;;;;;4974980;28;20072;-68